Norman, Arkansas
Current Conditions -  °F | °C
As of 2:53 AM on Thursday 23 Oct 2014 (Local Time) from KMWT Reporting Station
Haze Haze  
Wind Chill: 50°   Ceiling: Unl
Heat Index: 50°   Visibility: 6mi
Dew Point: 48°   Wind: 0mph
Humidity: 93%   Direction: NA
Pressure: 30.14"   Gusts: NA
Location:  34.46°N, 93.68°W
Report Text: KMWT 230753Z AUTO 00000KT 6SM BR CLR 10/09 A3014 RMK AO2 SLP202 T01000089
Loading
Personal Weather Stations






























Interactive Weather Map
Tropical Storm Tracking
New forecast layout! Learn more

10-Day Weather Forecast

Advertisements
Track Severe Weather on mobile